KPRO

Perry Municipal Airport

Perry, Iowa, USA
METAR KPRO 191655Z AUTO 14009KT 10SM SCT025 27/22 A2993 RMK AO2 T02690223
Observed Flight Rules
Aug-19 @ 16:55 UTC (18 minutes ago) Visual Flight Rules
Wind Visibility Clouds
140° at 9 knots 10 miles
  • Scattered at 2,500' AGL
Temperatures Readings
Current 27°C / 81°F
Dewpoint 22°C / 72°F
Humidity 74%
Altimeter 29.93" Hg
Pressure 1014 hPa
Elevation 308
METAR KPRO 191655Z AUTO 14009KT 10SM SCT025 27/22 A2993 RMK AO2 T02690223
Observed Flight Rules
Aug-19 @ 16:55 UTC
(18 minutes ago)
VFR
Wind Visibility
140° at 9 knots 10 miles
Clouds
  • Scattered at 2,500' AGL
Temperature Dewpoint
27°C / 81°F 22°C / 72°F
Humidity Altimeter Pressure
74% 29.93" Hg 1014 hPa